Time;durP1;ratioP1;P1;durP2;ratioP2;P2;SDS_P1;SDS_P2;PMS_P1;PMS_P2;Temp;Humidity;BMP_temperature;BMP_pressure;BME280_temperature;BME280_humidity;BME280_pressure;Samples;Min_cycle;Max_cycle;Signal;HPM_P1;HPM_P2
2024/04/19 00:01:13;;;;;;;1.00;0.88;;;;;;;-0.09;100.00;100756.69;5421587;26;20002;-72
2024/04/19 00:03:38;;;;;;;2.55;0.80;;;;;;;-0.22;100.00;100750.78;5453611;26;19998;-72
2024/04/19 00:06:04;;;;;;;1.52;0.85;;;;;;;-0.25;100.00;100753.69;5454016;26;20010;-72
2024/04/19 00:08:29;;;;;;;1.58;0.80;;;;;;;-0.29;100.00;100749.63;5393404;26;19998;-72
2024/04/19 00:10:55;;;;;;;1.02;0.63;;;;;;;-0.38;100.00;100742.47;5456849;26;19995;-73
2024/04/19 00:13:21;;;;;;;1.08;0.60;;;;;;;-0.40;100.00;100737.28;5436347;26;19995;-72
2024/04/19 00:15:47;;;;;;;0.88;0.70;;;;;;;-0.37;100.00;100742.31;5433066;26;20002;-73
2024/04/19 00:18:12;;;;;;;1.58;0.80;;;;;;;-0.37;100.00;100750.25;5425077;26;20010;-73
2024/04/19 00:20:41;;;;;;;1.77;0.80;;;;;;;-0.52;100.00;100711.91;5455312;26;20399;-73
2024/04/19 00:23:06;;;;;;;1.05;0.70;;;;;;;-0.34;100.00;100736.78;5423325;26;20068;-72
2024/04/19 00:25:36;;;;;;;2.03;0.80;;;;;;;-0.35;100.00;100721.88;5422896;26;20766;-75
2024/04/19 00:28:02;;;;;;;1.10;0.73;;;;;;;-0.31;100.00;100725.94;5423304;26;20003;-72
2024/04/19 00:30:27;;;;;;;1.42;0.80;;;;;;;-0.26;100.00;100734.34;5454800;26;19995;-72
2024/04/19 00:32:53;;;;;;;1.50;0.77;;;;;;;-0.24;100.00;100720.97;5392701;26;20445;-73
2024/04/19 00:35:22;;;;;;;2.22;0.88;;;;;;;-0.32;100.00;100708.41;5454847;26;20010;-73
2024/04/19 00:37:47;;;;;;;1.23;0.80;;;;;;;-0.34;100.00;100704.22;5453380;26;20003;-75
2024/04/19 00:40:13;;;;;;;1.88;0.90;;;;;;;-0.27;100.00;100719.41;5454204;26;20067;-73
2024/04/19 00:42:39;;;;;;;1.27;0.70;;;;;;;-0.61;100.00;100657.19;5424747;26;20003;-72
2024/04/19 00:45:22;;;;;;;1.00;0.70;;;;;;;-0.42;100.00;100690.81;5394349;26;20003;-72
2024/04/19 00:47:48;;;;;;;0.95;0.75;;;;;;;-0.33;100.00;100701.47;5422972;26;19991;-73
2024/04/19 00:50:13;;;;;;;1.98;0.80;;;;;;;-0.38;100.00;100698.34;5455038;26;20009;-73
2024/04/19 00:52:39;;;;;;;1.00;0.75;;;;;;;-0.35;100.00;100713.97;5400420;26;20500;-72
2024/04/19 00:55:05;;;;;;;1.60;0.85;;;;;;;-0.40;100.00;100707.38;5370483;26;19996;-72
2024/04/19 00:57:31;;;;;;;1.10;0.90;;;;;;;-0.47;100.00;100713.19;5371347;26;20081;-73
2024/04/19 00:59:56;;;;;;;3.45;0.80;;;;;;;-0.53;100.00;100700.50;5371763;26;20011;-73
2024/04/19 01:02:22;;;;;;;1.08;0.90;;;;;;;-0.76;100.00;100662.00;5341647;26;20335;-73
2024/04/19 01:04:47;;;;;;;1.95;0.95;;;;;;;-0.71;100.00;100670.34;5344906;26;19996;-73
2024/04/19 01:07:13;;;;;;;1.40;0.70;;;;;;;-0.61;100.00;100692.38;5380646;26;20428;-74
2024/04/19 01:09:39;;;;;;;1.23;0.70;;;;;;;-0.63;100.00;100701.41;5353427;26;20005;-72
2024/04/19 01:12:04;;;;;;;0.80;0.68;;;;;;;-0.64;100.00;100703.22;5378057;26;20069;-74
2024/04/19 01:14:30;;;;;;;0.98;0.80;;;;;;;-0.71;100.00;100697.59;5371996;26;19996;-73
2024/04/19 01:16:55;;;;;;;1.17;0.75;;;;;;;-0.66;100.00;100699.88;5371180;26;20049;-72
2024/04/19 01:19:20;;;;;;;1.48;0.73;;;;;;;-0.66;100.00;100699.00;5371888;26;20032;-72
2024/04/19 01:21:46;;;;;;;1.08;0.80;;;;;;;-0.76;100.00;100680.47;5342465;26;20001;-73
2024/04/19 01:24:42;;;;;;;1.30;0.90;;;;;;;-0.80;100.00;100682.50;5340423;26;20696;-73
2024/04/19 01:27:09;;;;;;;2.38;0.90;;;;;;;-0.78;100.00;100693.81;5372136;26;20069;-72
2024/04/19 01:29:38;;;;;;;0.90;0.70;;;;;;;-0.86;100.00;100684.81;5372060;26;20455;-73
2024/04/19 01:32:04;;;;;;;2.55;0.98;;;;;;;-0.87;100.00;100691.09;5371651;26;20004;-72
2024/04/19 01:34:30;;;;;;;2.45;0.82;;;;;;;-0.92;100.00;100693.28;5370379;26;19992;-73
2024/04/19 01:36:56;;;;;;;0.85;0.70;;;;;;;-0.93;100.00;100683.66;5369511;26;20029;-73
2024/04/19 01:39:21;;;;;;;2.30;0.90;;;;;;;-1.37;100.00;100617.75;5413777;26;19996;-72
2024/04/19 01:41:47;;;;;;;1.30;0.80;;;;;;;-0.97;100.00;100686.56;5454084;26;20337;-73
2024/04/19 01:44:13;;;;;;;2.50;0.80;;;;;;;-0.99;100.00;100685.88;5453513;26;20014;-73
2024/04/19 01:46:39;;;;;;;1.17;0.88;;;;;;;-1.01;100.00;100677.22;5421502;26;19999;-72
2024/04/19 01:49:04;;;;;;;1.50;0.77;;;;;;;-1.13;100.00;100645.72;5453210;26;19991;-73
2024/04/19 01:51:30;;;;;;;3.13;1.00;;;;;;;-0.97;100.00;100673.34;5453931;26;19991;-72
2024/04/19 01:53:55;;;;;;;1.05;0.95;;;;;;;-0.96;100.00;100661.84;5416414;26;20003;-73
2024/04/19 01:56:20;;;;;;;1.63;1.00;;;;;;;-1.13;100.00;100627.25;5414849;26;20334;-73
2024/04/19 01:58:46;;;;;;;1.45;1.13;;;;;;;-0.97;100.00;100665.44;5409799;26;20332;-73
2024/04/19 02:01:11;;;;;;;1.73;0.90;;;;;;;-1.01;100.00;100658.75;5378794;26;20060;-72
2024/04/19 02:03:40;;;;;;;2.15;0.82;;;;;;;-1.05;100.00;100641.50;5409142;26;20426;-72
2024/04/19 02:06:11;;;;;;;1.80;1.10;;;;;;;-1.07;100.00;100650.50;5372251;26;20007;-73
2024/04/19 02:08:37;;;;;;;1.52;0.98;;;;;;;-1.10;100.00;100641.03;5371940;26;20731;-73
2024/04/19 02:11:03;;;;;;;2.10;0.95;;;;;;;-1.17;100.00;100637.22;5407647;26;20046;-73
2024/04/19 02:13:29;;;;;;;1.95;0.90;;;;;;;-1.14;100.00;100636.97;5347423;26;20002;-73
2024/04/19 02:15:54;;;;;;;1.92;0.80;;;;;;;-1.19;100.00;100642.63;5371443;26;19996;-73
2024/04/19 02:18:20;;;;;;;3.00;1.02;;;;;;;-1.25;100.00;100629.13;5372411;26;20328;-73
2024/04/19 02:20:45;;;;;;;2.35;1.13;;;;;;;-1.24;100.00;100628.13;5374782;26;19993;-72
2024/04/19 02:23:11;;;;;;;1.40;0.80;;;;;;;-1.27;100.00;100623.94;5380905;26;20523;-72
2024/04/19 02:25:36;;;;;;;1.52;0.90;;;;;;;-1.28;100.00;100627.56;5380750;26;20044;-73
2024/04/19 02:30:54;;;;;;;3.13;1.10;;;;;;;-1.31;100.00;100619.88;5391038;26;20004;-73
2024/04/19 02:33:20;;;;;;;3.08;0.98;;;;;;;-1.32;100.00;100615.59;5387048;26;20062;-72
2024/04/19 02:35:45;;;;;;;2.50;1.10;;;;;;;-1.33;100.00;100618.34;5411600;26;20004;-72
2024/04/19 02:38:11;;;;;;;1.80;1.10;;;;;;;-1.43;100.00;100600.63;5410876;26;20005;-73
2024/04/19 02:40:36;;;;;;;1.70;1.00;;;;;;;-1.62;100.00;100567.97;5411708;26;19999;-73
2024/04/19 02:43:02;;;;;;;2.88;1.20;;;;;;;-1.38;100.00;100602.06;5412555;26;20000;-74
2024/04/19 02:45:27;;;;;;;1.27;0.93;;;;;;;-1.39;100.00;100598.59;5412461;26;20332;-73
2024/04/19 02:47:52;;;;;;;1.52;0.98;;;;;;;-1.40;100.00;100596.88;5376317;26;20004;-73
2024/04/19 02:50:18;;;;;;;1.67;0.98;;;;;;;-1.51;100.00;100575.84;5377197;26;20041;-72
2024/04/19 02:52:43;;;;;;;2.75;1.20;;;;;;;-1.43;100.00;100597.97;5413044;26;20094;-73
2024/04/19 02:55:09;;;;;;;1.92;1.13;;;;;;;-1.44;100.00;100595.47;5414015;26;20000;-73
2024/04/19 02:57:34;;;;;;;2.90;1.00;;;;;;;-1.46;100.00;100594.75;5413250;26;20505;-73
2024/04/19 03:00:00;;;;;;;1.50;0.93;;;;;;;-1.63;100.00;100564.47;5413929;26;19992;-73
2024/04/19 03:02:25;;;;;;;1.35;1.00;;;;;;;-1.42;100.00;100589.13;5376349;26;20001;-74
2024/04/19 03:04:50;;;;;;;1.52;1.05;;;;;;;-1.41;100.00;100587.31;5411973;26;19997;-72
2024/04/19 03:07:16;;;;;;;1.23;1.10;;;;;;;-1.55;100.00;100566.50;5410552;26;20036;-73
2024/04/19 03:09:41;;;;;;;2.17;1.10;;;;;;;-1.44;100.00;100585.75;5413547;26;20011;-73
2024/04/19 03:12:07;;;;;;;2.63;1.20;;;;;;;-1.43;100.00;100590.06;5382872;26;20411;-73
2024/04/19 03:14:32;;;;;;;1.77;1.20;;;;;;;-1.66;100.00;100543.63;5374336;26;20049;-73
2024/04/19 03:16:57;;;;;;;4.07;1.13;;;;;;;-1.51;100.00;100562.66;5373557;26;20336;-72
2024/04/19 03:19:23;;;;;;;1.92;1.48;;;;;;;-1.43;100.00;100583.94;5410258;26;19998;-73
2024/04/19 03:21:51;;;;;;;1.30;1.15;;;;;;;-1.46;100.00;100569.22;5410432;26;19996;-73
2024/04/19 03:24:16;;;;;;;1.77;1.20;;;;;;;-1.51;100.00;100552.09;5377738;26;20004;-73
2024/04/19 03:26:42;;;;;;;2.17;1.17;;;;;;;-1.58;100.00;100549.13;5384735;26;20000;-73
2024/04/19 03:29:08;;;;;;;3.83;1.40;;;;;;;-1.45;100.00;100570.06;5415118;26;20510;-73
2024/04/19 03:31:34;;;;;;;2.05;1.25;;;;;;;-1.46;100.00;100565.72;5410467;26;20012;-73
2024/04/19 03:33:59;;;;;;;4.35;1.30;;;;;;;-1.48;100.00;100565.88;5410736;26;20015;-73
2024/04/19 03:36:25;;;;;;;1.38;1.13;;;;;;;-1.51;100.00;100549.44;5380463;26;19997;-73
2024/04/19 03:38:50;;;;;;;1.88;1.40;;;;;;;-1.56;100.00;100560.38;5372666;26;20068;-73
2024/04/19 03:41:16;;;;;;;1.92;1.35;;;;;;;-1.60;100.00;100556.31;5345232;26;20436;-73
2024/04/19 03:45:40;;;;;;;1.58;1.13;;;;;;;-1.60;100.00;100555.50;5338846;26;20044;-73
2024/04/19 03:46:28;;;;;;;3.05;1.40;;;;;;;-1.59;100.00;100557.16;5368038;26;20001;-73
2024/04/19 03:48:54;;;;;;;3.90;1.30;;;;;;;-1.57;100.00;100542.88;5338686;26;20482;-72
2024/04/19 03:51:19;;;;;;;1.50;1.25;;;;;;;-1.56;100.00;100546.34;5337648;26;20470;-73
2024/04/19 03:53:45;;;;;;;2.33;1.30;;;;;;;-1.53;100.00;100556.66;5402267;26;20008;-73
2024/04/19 03:56:10;;;;;;;2.85;1.20;;;;;;;-1.59;100.00;100534.28;5379355;26;20339;-73
2024/04/19 03:58:36;;;;;;;2.50;1.40;;;;;;;-1.52;100.00;100553.06;5409131;26;19997;-73
2024/04/19 04:01:07;;;;;;;1.88;1.40;;;;;;;-1.69;100.00;100512.22;5410049;26;20455;-72
2024/04/19 04:03:32;;;;;;;1.40;1.30;;;;;;;-1.48;100.00;100543.94;5410616;26;20004;-73
2024/04/19 04:05:58;;;;;;;3.92;1.63;;;;;;;-1.46;100.00;100540.19;5374747;26;20335;-73
2024/04/19 04:08:23;;;;;;;3.08;1.45;;;;;;;-1.42;100.00;100543.41;5375417;26;20033;-72
2024/04/19 04:10:49;;;;;;;2.63;1.40;;;;;;;-1.25;100.00;100534.06;5382036;26;20012;-73
2024/04/19 04:13:14;;;;;;;2.28;1.42;;;;;;;-0.40;100.00;100543.47;5409043;26;20015;-74
2024/04/19 04:15:43;;;;;;;2.40;1.50;;;;;;;0.40;100.00;100545.97;5410776;26;20447;-76
2024/04/19 04:18:08;;;;;;;1.75;1.63;;;;;;;0.91;100.00;100539.50;5409108;26;20471;-74
2024/04/19 04:20:34;;;;;;;2.42;1.80;;;;;;;1.01;100.00;100505.03;5357534;26;19997;-74
2024/04/19 04:22:59;;;;;;;4.28;1.95;;;;;;;1.15;100.00;100530.22;5382368;26;20012;-73
2024/04/19 04:25:25;;;;;;;5.28;2.78;;;;;;;1.38;100.00;100525.38;5412939;26;20026;-75
2024/04/19 04:27:51;;;;;;;4.80;2.55;;;;;;;1.97;100.00;100532.03;5410453;26;20032;-72
2024/04/19 04:30:16;;;;;;;6.80;3.10;;;;;;;2.29;100.00;100531.53;5411090;26;20015;-73
2024/04/19 04:32:42;;;;;;;12.48;4.70;;;;;;;2.50;100.00;100535.69;5410358;26;20000;-72
2024/04/19 04:35:07;;;;;;;10.93;5.10;;;;;;;2.17;100.00;100524.75;5351072;26;20028;-73
2024/04/19 04:37:34;;;;;;;11.45;5.05;;;;;;;2.46;100.00;100531.66;5409500;26;20000;-72
2024/04/19 04:39:59;;;;;;;8.85;4.35;;;;;;;1.95;100.00;100528.69;5371845;26;19996;-72
2024/04/19 04:42:25;;;;;;;8.13;3.90;;;;;;;1.65;100.00;100528.03;5372106;26;19992;-71
2024/04/19 04:44:50;;;;;;;7.32;3.47;;;;;;;1.09;100.00;100502.50;5407831;26;20023;-72
2024/04/19 04:47:16;;;;;;;7.05;3.28;;;;;;;1.51;100.00;100527.69;5406732;26;20458;-72
2024/04/19 04:49:41;;;;;;;6.43;3.05;;;;;;;1.97;100.00;100532.03;5348784;26;20000;-73
2024/04/19 04:52:07;;;;;;;5.85;3.03;;;;;;;1.93;100.00;100529.84;5418326;26;20831;-72
2024/04/19 04:54:32;;;;;;;3.88;2.50;;;;;;;1.91;100.00;100521.19;5419867;26;20010;-71
2024/04/19 04:56:57;;;;;;;4.32;2.25;;;;;;;1.69;100.00;100523.28;5420905;26;20007;-72
2024/04/19 04:59:23;;;;;;;5.07;2.38;;;;;;;1.26;100.00;100513.28;5422906;26;19995;-71
2024/04/19 05:01:48;;;;;;;4.85;2.90;;;;;;;0.21;100.00;100474.53;5454024;26;20002;-74
2024/04/19 05:04:14;;;;;;;4.78;2.78;;;;;;;-0.09;100.00;100502.78;5391783;26;19995;-74
2024/04/19 05:06:39;;;;;;;6.60;3.08;;;;;;;-0.17;100.00;100523.78;5420695;26;20469;-74
2024/04/19 05:09:05;;;;;;;3.95;2.28;;;;;;;-0.20;100.00;100539.91;5392215;26;19999;-73
2024/04/19 05:11:30;;;;;;;3.85;2.33;;;;;;;-0.27;100.00;100538.78;5421828;26;19994;-72
2024/04/19 05:13:55;;;;;;;6.13;2.63;;;;;;;-0.37;100.00;100537.94;5451685;26;20442;-72
2024/04/19 05:16:21;;;;;;;4.35;2.80;;;;;;;-0.36;100.00;100498.16;5418303;26;19999;-73
2024/04/19 05:18:46;;;;;;;4.25;2.13;;;;;;;-0.26;100.00;100537.84;5391854;26;20319;-72
2024/04/19 05:21:12;;;;;;;3.03;2.20;;;;;;;-0.24;100.00;100522.66;5422503;26;20007;-73
2024/04/19 05:23:38;;;;;;;3.75;2.20;;;;;;;-0.19;100.00;100541.59;5391351;26;20173;-73
2024/04/19 05:26:03;;;;;;;4.07;2.70;;;;;;;0.07;100.00;100538.44;5379932;26;20396;-74
2024/04/19 05:28:29;;;;;;;4.53;2.70;;;;;;;0.07;100.00;100509.34;5453116;26;20030;-76
2024/04/19 05:30:54;;;;;;;3.35;2.47;;;;;;;0.37;100.00;100538.31;5393640;26;19996;-74
2024/04/19 05:33:20;;;;;;;3.78;1.90;;;;;;;0.10;100.00;100527.56;5420280;26;20058;-72
2024/04/19 05:35:45;;;;;;;2.78;2.00;;;;;;;0.20;100.00;100523.16;5425481;26;20487;-72
2024/04/19 05:38:10;;;;;;;3.78;1.60;;;;;;;0.12;100.00;100528.28;5424556;26;20456;-74
2024/04/19 05:40:36;;;;;;;1.50;1.40;;;;;;;0.17;100.00;100528.72;5427068;26;20009;-72
2024/04/19 05:43:02;;;;;;;1.85;1.65;;;;;;;-0.02;100.00;100532.16;5437192;26;20003;-72
2024/04/19 05:45:27;;;;;;;1.83;1.63;;;;;;;0.09;100.00;100525.91;5430511;26;20013;-73
2024/04/19 05:47:53;;;;;;;1.65;1.50;;;;;;;0.11;100.00;100524.81;5421754;26;20005;-72
2024/04/19 05:50:18;;;;;;;2.17;1.42;;;;;;;-0.06;100.00;100521.03;5453242;26;20014;-73
2024/04/19 05:52:45;;;;;;;1.95;1.75;;;;;;;-0.01;100.00;100489.69;5422600;26;20003;-73
2024/04/19 05:55:11;;;;;;;2.05;1.50;;;;;;;-0.09;100.00;100471.06;5394623;26;19999;-72
2024/04/19 05:57:36;;;;;;;2.28;1.40;;;;;;;-0.07;100.00;100490.25;5455207;26;20387;-74
2024/04/19 06:00:03;;;;;;;1.77;1.50;;;;;;;0.29;100.00;100503.75;5391820;26;19995;-73
2024/04/19 06:02:29;;;;;;;2.63;1.30;;;;;;;0.56;100.00;100515.44;5425250;26;19995;-72
2024/04/19 06:04:54;;;;;;;2.17;1.45;;;;;;;0.59;100.00;100504.56;5453302;26;20025;-73
2024/04/19 06:07:24;;;;;;;1.80;1.30;;;;;;;0.70;100.00;100504.44;5424287;26;20008;-72
2024/04/19 06:09:49;;;;;;;1.20;0.90;;;;;;;0.74;100.00;100504.97;5426774;26;19999;-71
2024/04/19 06:12:15;;;;;;;1.60;1.20;;;;;;;0.70;100.00;100497.31;5420672;26;20005;-71
2024/04/19 06:14:40;;;;;;;1.52;1.20;;;;;;;0.77;100.00;100497.56;5453706;26;20454;-73
2024/04/19 06:17:06;;;;;;;1.80;1.10;;;;;;;1.02;100.00;100497.91;5420717;26;19991;-72
2024/04/19 06:19:31;;;;;;;1.77;1.10;;;;;;;1.16;100.00;100489.50;5422557;26;19999;-74
2024/04/19 06:21:56;;;;;;;1.50;1.00;;;;;;;1.37;100.00;100491.91;5391842;26;20010;-72
2024/04/19 06:24:23;;;;;;;1.75;1.13;;;;;;;1.50;100.00;100495.06;5391555;26;20015;-72
2024/04/19 06:26:49;;;;;;;1.63;1.08;;;;;;;2.01;100.00;100479.50;5423695;26;19991;-72
2024/04/19 06:29:14;;;;;;;1.85;1.00;;;;;;;1.76;100.00;100476.59;5424519;26;20079;-73
2024/04/19 06:31:40;;;;;;;1.50;0.90;;;;;;;2.06;100.00;100487.84;5394695;26;20003;-72
2024/04/19 06:34:05;;;;;;;1.40;0.90;;;;;;;1.73;100.00;100474.25;5424003;26;20006;-72
2024/04/19 06:36:30;;;;;;;0.85;0.70;;;;;;;1.78;100.00;100465.84;5461025;26;19999;-72
2024/04/19 06:39:00;;;;;;;2.53;0.80;;;;;;;1.90;100.00;100469.13;5439215;26;19991;-72
2024/04/19 06:41:26;;;;;;;1.75;0.70;;;;;;;1.75;100.00;100479.41;5458425;26;20338;-72
2024/04/19 06:43:51;;;;;;;1.45;0.82;;;;;;;1.87;100.00;100465.78;5395027;26;19999;-73
2024/04/19 06:46:17;;;;;;;0.95;0.70;;;;;;;1.76;100.00;100455.38;5425276;26;20022;-72
2024/04/19 06:48:42;;;;;;;1.50;0.88;;;;;;;1.87;100.00;100454.31;5456984;26;20011;-73
2024/04/19 06:51:08;;;;;;;0.90;0.70;;;;;;;1.86;100.00;100461.44;5394288;26;20008;-72
2024/04/19 06:53:33;;;;;;;6.43;1.20;;;;;;;2.05;100.00;100454.31;5423259;26;19995;-72
2024/04/19 06:55:58;;;;;;;1.15;0.98;;;;;;;2.06;100.00;100466.63;5395280;26;20010;-71
2024/04/19 06:58:24;;;;;;;0.85;0.70;;;;;;;2.10;100.00;100441.44;5423906;26;20006;-72
2024/04/19 07:00:51;;;;;;;0.85;0.70;;;;;;;1.98;100.00;100458.56;5424483;26;20469;-71
2024/04/19 07:03:17;;;;;;;1.33;0.80;;;;;;;1.94;100.00;100458.03;5456599;26;20035;-72
2024/04/19 07:05:42;;;;;;;1.05;0.70;;;;;;;2.07;100.00;100463.78;5365592;26;20003;-72
2024/04/19 07:08:08;;;;;;;1.58;1.00;;;;;;;2.21;100.00;100446.50;5423642;26;20388;-72
2024/04/19 07:10:37;;;;;;;0.80;0.80;;;;;;;2.39;100.00;100461.56;5454853;26;20011;-72
2024/04/19 07:13:03;;;;;;;0.70;0.60;;;;;;;2.77;100.00;100465.66;5415548;26;19995;-72
2024/04/19 07:15:28;;;;;;;0.70;0.60;;;;;;;2.85;100.00;100462.19;5419206;26;20006;-72
2024/04/19 07:17:54;;;;;;;2.67;0.70;;;;;;;2.48;100.00;100428.75;5391575;26;19999;-71
2024/04/19 07:20:19;;;;;;;0.88;0.70;;;;;;;2.83;100.00;100465.84;5421570;26;20003;-74
2024/04/19 07:22:45;;;;;;;1.33;0.70;;;;;;;2.58;100.00;100456.03;5421593;26;20002;-74
2024/04/19 07:25:10;;;;;;;1.20;0.60;;;;;;;2.74;100.00;100448.19;5452430;26;20042;-72
2024/04/19 07:27:36;;;;;;;0.95;0.60;;;;;;;2.55;100.00;100435.97;5420701;26;19995;-73
2024/04/19 07:30:01;;;;;;;1.13;0.60;;;;;;;2.47;100.00;100465.09;5420375;26;20096;-72
2024/04/19 07:32:27;;;;;;;1.80;0.70;;;;;;;2.69;100.00;100474.41;5421868;26;19999;-72
2024/04/19 07:34:52;;;;;;;1.98;0.60;;;;;;;3.02;100.00;100470.13;5452433;26;19999;-72
2024/04/19 07:37:18;;;;;;;2.80;0.60;;;;;;;2.99;100.00;100413.78;5399491;26;20000;-73
2024/04/19 07:39:43;;;;;;;1.77;0.50;;;;;;;3.29;100.00;100462.91;5422480;26;20042;-74
2024/04/19 07:42:08;;;;;;;1.02;0.60;;;;;;;3.18;100.00;100468.50;5392710;26;19991;-73
2024/04/19 07:44:34;;;;;;;0.70;0.60;;;;;;;3.53;100.00;100440.88;5393003;26;20005;-74
2024/04/19 07:46:59;;;;;;;0.70;0.60;;;;;;;3.36;100.00;100461.28;5422424;26;20327;-72
2024/04/19 07:49:25;;;;;;;0.50;0.40;;;;;;;3.52;100.00;100455.19;5453535;26;20093;-72
2024/04/19 07:51:52;;;;;;;1.55;0.60;;;;;;;3.26;100.00;100456.09;5451178;26;19994;-72
2024/04/19 07:54:18;;;;;;;0.60;0.50;;;;;;;3.49;100.00;100443.03;5450973;26;19991;-72
2024/04/19 07:56:46;;;;;;;1.13;0.57;;;;;;;3.74;100.00;100451.91;5390717;26;20048;-72
2024/04/19 07:59:11;;;;;;;0.80;0.50;;;;;;;3.75;100.00;100436.78;5390898;26;19995;-72
2024/04/19 08:01:37;;;;;;;0.60;0.45;;;;;;;4.42;100.00;100456.13;5451555;26;19998;-72
2024/04/19 08:04:03;;;;;;;0.80;0.52;;;;;;;4.51;100.00;100454.28;5420009;26;20005;-72
2024/04/19 08:06:29;;;;;;;1.77;0.60;;;;;;;4.41;100.00;100445.63;5452521;26;19991;-72
2024/04/19 08:08:54;;;;;;;0.70;0.50;;;;;;;4.37;100.00;100454.94;5455208;26;19991;-71
2024/04/19 08:11:20;;;;;;;0.73;0.40;;;;;;;4.02;100.00;100446.28;5393139;26;20009;-72
2024/04/19 08:13:45;;;;;;;0.65;0.40;;;;;;;4.11;100.00;100442.66;5421470;26;20002;-72
2024/04/19 08:16:10;;;;;;;0.82;0.47;;;;;;;4.50;100.00;100449.94;5421561;26;20006;-72
2024/04/19 08:18:36;;;;;;;0.70;0.40;;;;;;;4.54;100.00;100443.28;5423371;26;19999;-72
2024/04/19 08:21:01;;;;;;;0.45;0.30;;;;;;;4.69;100.00;100446.09;5422952;26;19999;-72
2024/04/19 08:23:27;;;;;;;3.70;0.60;;;;;;;4.60;100.00;100441.75;5454671;26;20039;-72
2024/04/19 08:25:53;;;;;;;2.08;0.70;;;;;;;4.79;100.00;100443.22;5455087;26;20040;-72
2024/04/19 08:28:19;;;;;;;0.73;0.30;;;;;;;4.30;100.00;100435.31;5455140;26;20005;-72
2024/04/19 08:30:48;;;;;;;1.27;0.50;;;;;;;4.02;100.00;100446.28;5454371;26;19999;-72
2024/04/19 08:33:13;;;;;;;1.02;0.60;;;;;;;4.04;100.00;100438.13;5454600;26;20402;-72
2024/04/19 08:35:38;;;;;;;1.77;0.60;;;;;;;4.13;100.00;100443.28;5453871;26;20064;-72
2024/04/19 08:38:04;;;;;;;3.35;0.50;;;;;;;4.34;100.00;100437.50;5454804;26;20005;-72
2024/04/19 08:40:29;;;;;;;0.68;0.32;;;;;;;4.31;100.00;100397.03;5423622;26;20083;-72
2024/04/19 08:42:56;;;;;;;0.80;0.45;;;;;;;4.67;100.00;100437.44;5407766;26;20315;-71
2024/04/19 08:45:22;;;;;;;0.70;0.43;;;;;;;4.81;100.00;100442.06;5452703;26;20027;-72
2024/04/19 08:47:51;;;;;;;0.90;0.55;;;;;;;4.62;100.00;100439.78;5469148;26;19999;-72
2024/04/19 08:50:17;;;;;;;1.13;0.50;;;;;;;4.51;100.00;100440.13;5468837;26;19983;-72
2024/04/19 08:52:46;;;;;;;1.05;0.50;;;;;;;4.47;100.00;100450.31;5426751;26;20003;-72
2024/04/19 08:55:12;;;;;;;5.80;0.88;;;;;;;4.26;100.00;100439.31;5453602;26;20001;-72
2024/04/19 08:57:44;;;;;;;1.00;0.60;;;;;;;4.06;100.00;100447.63;5454131;26;19991;-72
2024/04/19 09:00:10;;;;;;;0.70;0.40;;;;;;;4.02;100.00;100442.81;5421629;26;19994;-72
2024/04/19 09:02:35;;;;;;;0.77;0.50;;;;;;;4.38;100.00;100449.47;5453482;26;20024;-71
2024/04/19 09:05:01;;;;;;;0.68;0.35;;;;;;;4.48;100.00;100446.63;5392179;26;20370;-72
2024/04/19 09:07:29;;;;;;;1.05;0.40;;;;;;;4.29;100.00;100446.97;5453662;26;20005;-72
2024/04/19 09:09:56;;;;;;;0.40;0.20;;;;;;;4.30;100.00;100449.44;5422612;26;20006;-72
2024/04/19 09:12:22;;;;;;;0.65;0.25;;;;;;;4.14;100.00;100454.78;5392063;26;20315;-71
2024/04/19 09:14:51;;;;;;;0.40;0.30;;;;;;;4.24;100.00;100453.63;5453601;26;20006;-72
2024/04/19 09:17:16;;;;;;;0.40;0.32;;;;;;;4.16;100.00;100437.63;5392112;26;19994;-72
2024/04/19 09:19:42;;;;;;;2.10;0.40;;;;;;;4.26;100.00;100439.31;5391262;26;20010;-72
2024/04/19 09:22:08;;;;;;;0.60;0.28;;;;;;;4.31;100.00;100440.47;5453237;26;19995;-72
2024/04/19 09:24:34;;;;;;;0.30;0.22;;;;;;;4.66;100.00;100430.44;5451897;26;19994;-72
2024/04/19 09:27:05;;;;;;;0.30;0.20;;;;;;;4.88;100.00;100442.22;5419591;26;19995;-73
2024/04/19 09:29:31;;;;;;;0.30;0.30;;;;;;;5.49;100.00;100431.78;5421091;26;20061;-73
2024/04/19 09:31:58;;;;;;;0.30;0.30;;;;;;;5.16;100.00;100437.28;5420736;26;20007;-73
2024/04/19 09:34:24;;;;;;;0.50;0.20;;;;;;;4.86;100.00;100436.22;5452584;26;20388;-71
2024/04/19 09:36:50;;;;;;;5.80;0.45;;;;;;;4.86;100.00;100433.53;5459551;26;20011;-73
2024/04/19 09:39:17;;;;;;;0.75;0.40;;;;;;;4.83;100.00;100409.91;5432407;26;20104;-73
2024/04/19 09:41:42;;;;;;;0.60;0.50;;;;;;;5.57;100.00;100437.94;5458263;26;19995;-71
2024/04/19 09:44:11;;;;;;;0.28;0.20;;;;;;;5.52;100.00;100416.25;5424312;26;20010;-71
2024/04/19 09:46:40;;;;;;;0.57;0.38;;;;;;;5.41;100.00;100432.66;5424170;26;19998;-71
2024/04/19 09:49:08;;;;;;;0.45;0.22;;;;;;;5.27;100.00;100393.41;5453709;26;20005;-71
2024/04/19 09:51:41;;;;;;;2.67;0.30;;;;;;;5.79;100.00;100430.09;5452027;26;20048;-70
2024/04/19 09:54:11;;;;;;;0.30;0.30;;;;;;;6.16;100.00;100426.72;5452774;26;20040;-70
2024/04/19 09:57:00;;;;;;;0.40;0.30;;;;;;;5.69;100.00;100424.16;5451472;26;19995;-71
2024/04/19 09:59:26;;;;;;;0.57;0.22;;;;;;;5.56;100.00;100425.59;5406246;26;19999;-70
2024/04/19 10:01:53;;;;;;;0.40;0.30;;;;;;;5.70;100.00;100425.84;5420100;26;19995;-70
2024/04/19 10:04:20;;;;;;;1.55;0.60;;;;;;;5.88;100.00;100419.19;5451406;26;20002;-70
2024/04/19 10:06:47;;;;;;;1.02;0.35;;;;;;;5.70;100.00;100423.19;5420577;26;20005;-71
2024/04/19 10:09:17;;;;;;;1.02;0.28;;;;;;;4.87;100.00;100331.25;5454053;26;19995;-71
2024/04/19 10:11:45;;;;;;;1.48;0.40;;;;;;;5.48;100.00;100419.47;5455035;26;20410;-71
2024/04/19 10:14:12;;;;;;;0.75;0.22;;;;;;;5.64;100.00;100411.38;5453543;26;20388;-71
2024/04/19 10:16:39;;;;;;;1.75;0.40;;;;;;;5.69;100.00;100416.16;5451768;26;19990;-71
2024/04/19 10:19:05;;;;;;;0.40;0.30;;;;;;;5.92;100.00;100413.50;5451582;26;19986;-71
2024/04/19 10:21:33;;;;;;;1.75;0.30;;;;;;;5.27;100.00;100364.06;5450908;26;20445;-71
2024/04/19 10:24:08;;;;;;;0.20;0.20;;;;;;;5.68;100.00;100409.16;5419475;26;20011;-72
2024/04/19 10:26:34;;;;;;;2.03;0.20;;;;;;;6.10;100.00;100422.91;5418838;26;20027;-71
2024/04/19 10:29:01;;;;;;;1.55;0.20;;;;;;;6.52;100.00;100424.22;5388957;26;20342;-71
2024/04/19 10:31:28;;;;;;;0.60;0.30;;;;;;;6.23;100.00;100411.63;5447894;26;20006;-71
2024/04/19 10:33:54;;;;;;;0.38;0.20;;;;;;;6.53;100.00;100414.34;5389741;26;19987;-72
2024/04/19 10:36:19;;;;;;;0.47;0.40;;;;;;;6.31;100.00;100414.19;5388883;26;19995;-71
2024/04/19 10:38:47;;;;;;;1.13;0.30;;;;;;;5.89;100.00;100422.69;5451536;26;20453;-71
2024/04/19 10:41:16;;;;;;;0.30;0.20;;;;;;;6.17;100.00;100408.84;5454017;26;20055;-75
2024/04/19 10:43:42;;;;;;;0.40;0.20;;;;;;;5.93;100.00;100420.53;5423517;26;20010;-72
2024/04/19 10:46:10;;;;;;;1.30;0.32;;;;;;;5.75;100.00;100421.63;5425333;26;20018;-70
2024/04/19 10:48:37;;;;;;;0.40;0.20;;;;;;;5.62;100.00;100424.88;5457564;26;20362;-71
2024/04/19 10:51:04;;;;;;;0.50;0.20;;;;;;;5.77;100.00;100426.81;5454416;26;20005;-71
2024/04/19 10:53:30;;;;;;;0.47;0.20;;;;;;;5.51;100.00;100390.59;5392102;26;19998;-71
2024/04/19 10:55:56;;;;;;;0.17;0.17;;;;;;;5.71;100.00;100416.81;5454762;26;20058;-71
2024/04/19 10:58:21;;;;;;;0.30;0.20;;;;;;;5.69;100.00;100413.50;5421950;26;20579;-72
2024/04/19 11:00:48;;;;;;;0.28;0.20;;;;;;;6.15;100.00;100410.84;5421710;26;19999;-72
2024/04/19 11:03:14;;;;;;;0.28;0.20;;;;;;;6.55;100.00;100410.47;5452967;26;19995;-73
2024/04/19 11:05:40;;;;;;;0.20;0.20;;;;;;;6.69;100.00;100414.19;5453333;26;20071;-71
2024/04/19 11:08:06;;;;;;;0.38;0.30;;;;;;;6.46;100.00;100395.53;5391439;26;19995;-72
2024/04/19 11:10:33;;;;;;;0.30;0.22;;;;;;;6.65;100.00;100406.69;5453281;26;20075;-71
2024/04/19 11:12:58;;;;;;;0.55;0.20;;;;;;;6.82;100.00;100395.66;5421982;26;20003;-73
2024/04/19 11:15:26;;;;;;;0.68;0.20;;;;;;;6.87;100.00;100402.28;5422237;26;20478;-72
2024/04/19 11:17:51;;;;;;;0.45;0.30;;;;;;;6.74;100.00;100386.88;5453720;26;20002;-73
2024/04/19 11:20:17;;;;;;;0.30;0.20;;;;;;;7.14;100.00;100409.63;5421701;26;20382;-71